Waizenkirchen, Austria
Current Conditions -  °F | °C
As of 2:20 AM on Thursday 23 Oct 2014 (Local Time) from LOWL Reporting Station
Light Rain Light Rain  
Wind Chill: 32°   Ceiling: 800
Heat Index: 39°   Visibility: 6mi
Dew Point: 37°   Wind: 10mph
Humidity: 93%   Direction: 230°SW
Pressure: 29.83"   Gusts: NA
Location:  48.33°N, 13.86°E
Report Text: LOWL 230020Z AUTO 23009KT 9999 -RA FEW007 BKN008 04/03 Q1010
Loading
Personal Weather Stations






























Interactive Weather Map
Tropical Storm Tracking
New forecast layout! Learn more

10-Day Weather Forecast

Advertisements
Track Severe Weather on mobile